sensor_id;sensor_type;location;lat;lon;timestamp;pressure;altitude;pressure_sealevel;temperature;humidity
60319;BME280;46163;52.306;5.634;2022-09-09T00:00:18;100615.00;;;23.02;57.37
60319;BME280;46163;52.306;5.634;2022-09-09T00:02:54;100614.19;;;23.01;57.15
60319;BME280;46163;52.306;5.634;2022-09-09T00:05:33;100614.47;;;23.00;57.17
60319;BME280;46163;52.306;5.634;2022-09-09T00:08:02;100609.34;;;22.98;57.19
60319;BME280;46163;52.306;5.634;2022-09-09T00:10:39;100612.88;;;22.99;57.12
60319;BME280;46163;52.306;5.634;2022-09-09T00:13:18;100601.50;;;22.97;56.93
60319;BME280;46163;52.306;5.634;2022-09-09T00:16:19;100599.59;;;22.97;57.04
60319;BME280;46163;52.306;5.634;2022-09-09T00:19:15;100595.25;;;22.96;57.20
60319;BME280;46163;52.306;5.634;2022-09-09T00:27:43;100587.69;;;22.93;57.15
60319;BME280;46163;52.306;5.634;2022-09-09T00:30:20;100586.06;;;22.92;56.88
60319;BME280;46163;52.306;5.634;2022-09-09T00:32:55;100581.75;;;22.91;57.36
60319;BME280;46163;52.306;5.634;2022-09-09T00:35:33;100576.31;;;22.91;57.04
60319;BME280;46163;52.306;5.634;2022-09-09T00:38:14;100571.22;;;22.84;57.46
60319;BME280;46163;52.306;5.634;2022-09-09T00:40:53;100578.53;;;22.89;56.96
60319;BME280;46163;52.306;5.634;2022-09-09T00:43:33;100583.13;;;22.89;57.13
60319;BME280;46163;52.306;5.634;2022-09-09T00:49:20;100579.91;;;22.87;57.05
60319;BME280;46163;52.306;5.634;2022-09-09T00:54:53;100580.22;;;22.85;57.12
60319;BME280;46163;52.306;5.634;2022-09-09T00:57:28;100587.78;;;22.83;57.18
60319;BME280;46163;52.306;5.634;2022-09-09T01:00:35;100582.34;;;22.83;57.41
60319;BME280;46163;52.306;5.634;2022-09-09T01:08:06;100583.75;;;22.80;57.07
60319;BME280;46163;52.306;5.634;2022-09-09T01:10:49;100582.94;;;22.80;57.05
60319;BME280;46163;52.306;5.634;2022-09-09T01:13:34;100584.03;;;22.79;57.02
60319;BME280;46163;52.306;5.634;2022-09-09T01:16:08;100585.13;;;22.78;57.19
60319;BME280;46163;52.306;5.634;2022-09-09T01:18:46;100589.75;;;22.77;57.11
60319;BME280;46163;52.306;5.634;2022-09-09T01:21:38;100579.16;;;22.76;56.96
60319;BME280;46163;52.306;5.634;2022-09-09T01:27:00;100586.78;;;22.74;57.39
60319;BME280;46163;52.306;5.634;2022-09-09T01:29:26;100584.06;;;22.74;57.33
60319;BME280;46163;52.306;5.634;2022-09-09T01:32:00;100591.69;;;22.72;57.06
60319;BME280;46163;52.306;5.634;2022-09-09T01:34:38;100589.28;;;22.70;57.27
60319;BME280;46163;52.306;5.634;2022-09-09T01:37:11;100590.88;;;22.71;57.26
60319;BME280;46163;52.306;5.634;2022-09-09T01:39:41;100584.66;;;22.71;57.33
60319;BME280;46163;52.306;5.634;2022-09-09T01:42:09;100578.44;;;22.70;57.11
60319;BME280;46163;52.306;5.634;2022-09-09T01:44:36;100576.00;;;22.69;56.95
60319;BME280;46163;52.306;5.634;2022-09-09T01:47:03;100580.63;;;22.68;57.38
60319;BME280;46163;52.306;5.634;2022-09-09T01:49:29;100571.94;;;22.66;57.37
60319;BME280;46163;52.306;5.634;2022-09-09T01:51:56;100578.19;;;22.67;56.91
60319;BME280;46163;52.306;5.634;2022-09-09T01:54:25;100582.78;;;22.66;57.42
60319;BME280;46163;52.306;5.634;2022-09-09T02:00:00;100570.91;;;22.62;56.94
60319;BME280;46163;52.306;5.634;2022-09-09T02:03:04;100580.66;;;22.63;57.17
60319;BME280;46163;52.306;5.634;2022-09-09T02:08:07;100578.25;;;22.62;57.32
60319;BME280;46163;52.306;5.634;2022-09-09T02:11:02;100576.63;;;22.61;57.41
60319;BME280;46163;52.306;5.634;2022-09-09T02:13:32;100573.97;;;22.55;57.18
60319;BME280;46163;52.306;5.634;2022-09-09T02:18:35;100569.06;;;22.57;56.96
60319;BME280;46163;52.306;5.634;2022-09-09T02:21:04;100570.94;;;22.57;57.03
60319;BME280;46163;52.306;5.634;2022-09-09T02:23:31;100566.63;;;22.56;57.47
60319;BME280;46163;52.306;5.634;2022-09-09T02:25:58;100554.47;;;22.53;57.39
60319;BME280;46163;52.306;5.634;2022-09-09T02:30:51;100561.78;;;22.53;57.30
60319;BME280;46163;52.306;5.634;2022-09-09T02:33:25;100553.66;;;22.53;57.14
60319;BME280;46163;52.306;5.634;2022-09-09T02:35:53;100555.03;;;22.50;57.07
60319;BME280;46163;52.306;5.634;2022-09-09T02:38:25;100562.63;;;22.48;57.18
60319;BME280;46163;52.306;5.634;2022-09-09T02:40:53;100562.34;;;22.50;57.32
60319;BME280;46163;52.306;5.634;2022-09-09T02:43:19;100565.06;;;22.50;56.99
60319;BME280;46163;52.306;5.634;2022-09-09T02:45:57;100562.63;;;22.48;57.35
60319;BME280;46163;52.306;5.634;2022-09-09T02:51:08;100562.41;;;22.45;56.98
60319;BME280;46163;52.306;5.634;2022-09-09T02:53:48;100565.13;;;22.45;57.05
60319;BME280;46163;52.306;5.634;2022-09-09T02:56:20;100564.31;;;22.44;57.28
60319;BME280;46163;52.306;5.634;2022-09-09T02:58:46;100556.19;;;22.44;57.52
60319;BME280;46163;52.306;5.634;2022-09-09T03:01:12;100561.91;;;22.43;57.28
60319;BME280;46163;52.306;5.634;2022-09-09T03:03:37;100533.31;;;22.26;57.54
60319;BME280;46163;52.306;5.634;2022-09-09T03:06:03;100564.06;;;22.41;57.43
60319;BME280;46163;52.306;5.634;2022-09-09T03:08:31;100560.53;;;22.40;57.17
60319;BME280;46163;52.306;5.634;2022-09-09T03:10:58;100564.34;;;22.39;57.25
60319;BME280;46163;52.306;5.634;2022-09-09T03:13:26;100559.75;;;22.40;57.36
60319;BME280;46163;52.306;5.634;2022-09-09T03:15:52;100548.97;;;22.35;57.14
60319;BME280;46163;52.306;5.634;2022-09-09T03:18:17;100556.81;;;22.36;57.07
60319;BME280;46163;52.306;5.634;2022-09-09T03:20:43;100562.22;;;22.36;57.15
60319;BME280;46163;52.306;5.634;2022-09-09T03:23:08;100543.34;;;22.26;57.24
60319;BME280;46163;52.306;5.634;2022-09-09T03:25:34;100561.41;;;22.36;57.18
60319;BME280;46163;52.306;5.634;2022-09-09T03:28:01;100561.72;;;22.34;57.13
60319;BME280;46163;52.306;5.634;2022-09-09T03:30:27;100560.91;;;22.34;57.33
60319;BME280;46163;52.306;5.634;2022-09-09T03:32:53;100564.69;;;22.33;57.51
60319;BME280;46163;52.306;5.634;2022-09-09T03:35:19;100566.88;;;22.31;57.31
60319;BME280;46163;52.306;5.634;2022-09-09T03:37:44;100564.97;;;22.31;57.49
60319;BME280;46163;52.306;5.634;2022-09-09T03:40:10;100562.56;;;22.29;57.40
60319;BME280;46163;52.306;5.634;2022-09-09T03:42:37;100557.41;;;22.28;57.20
60319;BME280;46163;52.306;5.634;2022-09-09T03:45:08;100554.72;;;22.28;57.20
60319;BME280;46163;52.306;5.634;2022-09-09T03:47:36;100550.66;;;22.25;57.46
60319;BME280;46163;52.306;5.634;2022-09-09T03:50:03;100539.56;;;22.22;57.38
60319;BME280;46163;52.306;5.634;2022-09-09T03:52:31;100547.41;;;22.23;57.15
60319;BME280;46163;52.306;5.634;2022-09-09T03:54:56;100551.22;;;22.22;57.46
60319;BME280;46163;52.306;5.634;2022-09-09T03:57:22;100549.31;;;22.23;57.40
60319;BME280;46163;52.306;5.634;2022-09-09T03:59:48;100546.09;;;22.21;57.56
60319;BME280;46163;52.306;5.634;2022-09-09T04:02:13;100548.50;;;22.22;57.52
60319;BME280;46163;52.306;5.634;2022-09-09T04:04:39;100542.28;;;22.22;57.15
60319;BME280;46163;52.306;5.634;2022-09-09T04:07:04;100540.66;;;22.21;57.65
60319;BME280;46163;52.306;5.634;2022-09-09T04:09:32;100543.16;;;22.17;57.18
60319;BME280;46163;52.306;5.634;2022-09-09T04:11:58;100540.16;;;22.19;57.46
60319;BME280;46163;52.306;5.634;2022-09-09T04:14:23;100540.44;;;22.17;57.08
60319;BME280;46163;52.306;5.634;2022-09-09T04:16:51;100540.44;;;22.17;57.26
60319;BME280;46163;52.306;5.634;2022-09-09T04:19:16;100536.38;;;22.15;57.50
60319;BME280;46163;52.306;5.634;2022-09-09T04:21:42;100539.63;;;22.17;57.50
60319;BME280;46163;52.306;5.634;2022-09-09T04:24:08;100525.31;;;22.11;57.47
60319;BME280;46163;52.306;5.634;2022-09-09T04:26:34;100533.97;;;22.13;57.62
60319;BME280;46163;52.306;5.634;2022-09-09T04:29:02;100528.53;;;22.13;57.66
60319;BME280;46163;52.306;5.634;2022-09-09T04:31:27;100532.34;;;22.12;57.68
60319;BME280;46163;52.306;5.634;2022-09-09T04:33:53;100533.16;;;22.13;57.12
60319;BME280;46163;52.306;5.634;2022-09-09T04:36:19;100536.16;;;22.11;57.65
60319;BME280;46163;52.306;5.634;2022-09-09T04:38:45;100536.97;;;22.12;57.54
60319;BME280;46163;52.306;5.634;2022-09-09T04:41:12;100539.16;;;22.10;57.63
60319;BME280;46163;52.306;5.634;2022-09-09T04:43:38;100530.72;;;22.06;57.61
60319;BME280;46163;52.306;5.634;2022-09-09T04:46:05;100539.44;;;22.08;57.74
60319;BME280;46163;52.306;5.634;2022-09-09T04:48:31;100532.63;;;22.06;57.66
60319;BME280;46163;52.306;5.634;2022-09-09T04:51:00;100535.94;;;22.08;57.47
60319;BME280;46163;52.306;5.634;2022-09-09T04:53:26;100536.16;;;22.06;57.31
60319;BME280;46163;52.306;5.634;2022-09-09T04:56:00;100522.09;;;22.04;57.39
60319;BME280;46163;52.306;5.634;2022-09-09T04:58:26;100529.94;;;22.06;57.72
60319;BME280;46163;52.306;5.634;2022-09-09T05:00:52;100534.53;;;22.05;57.42
60319;BME280;46163;52.306;5.634;2022-09-09T05:03:17;100535.63;;;22.04;57.44
60319;BME280;46163;52.306;5.634;2022-09-09T05:05:44;100528.91;;;22.01;57.64
60319;BME280;46163;52.306;5.634;2022-09-09T05:08:10;100521.56;;;22.02;57.79
60319;BME280;46163;52.306;5.634;2022-09-09T05:10:38;100511.31;;;21.99;57.54
60319;BME280;46163;52.306;5.634;2022-09-09T05:13:04;100519.69;;;21.97;57.60
60319;BME280;46163;52.306;5.634;2022-09-09T05:15:31;100517.53;;;21.99;57.38
60319;BME280;46163;52.306;5.634;2022-09-09T05:17:58;100522.97;;;21.99;57.70
60319;BME280;46163;52.306;5.634;2022-09-09T05:20:26;100516.72;;;21.99;57.30
60319;BME280;46163;52.306;5.634;2022-09-09T05:22:55;100518.63;;;21.98;57.36
60319;BME280;46163;52.306;5.634;2022-09-09T05:25:21;100510.50;;;21.98;57.41
60319;BME280;46163;52.306;5.634;2022-09-09T05:27:47;100513.22;;;21.98;57.43
60319;BME280;46163;52.306;5.634;2022-09-09T05:30:15;100526.75;;;21.98;57.75
60319;BME280;46163;52.306;5.634;2022-09-09T05:32:41;100531.38;;;21.98;57.27
60319;BME280;46163;52.306;5.634;2022-09-09T05:35:07;100532.19;;;21.98;57.71
60319;BME280;46163;52.306;5.634;2022-09-09T05:37:32;100527.03;;;21.97;57.48
60319;BME280;46163;52.306;5.634;2022-09-09T05:39:58;100516.19;;;21.97;57.61
60319;BME280;46163;52.306;5.634;2022-09-09T05:42:24;100525.66;;;21.99;57.52
60319;BME280;46163;52.306;5.634;2022-09-09T05:44:49;100526.75;;;21.98;57.43
60319;BME280;46163;52.306;5.634;2022-09-09T05:47:16;100523.25;;;21.98;57.52
60319;BME280;46163;52.306;5.634;2022-09-09T05:49:42;100524.31;;;21.97;57.79
60319;BME280;46163;52.306;5.634;2022-09-09T05:52:08;100518.38;;;21.95;57.72
60319;BME280;46163;52.306;5.634;2022-09-09T05:54:35;100517.28;;;21.96;57.72
60319;BME280;46163;52.306;5.634;2022-09-09T05:57:00;100516.47;;;21.95;58.24
60319;BME280;46163;52.306;5.634;2022-09-09T05:59:25;100518.16;;;21.91;57.71
60319;BME280;46163;52.306;5.634;2022-09-09T06:01:51;100529.22;;;21.95;58.05
60319;BME280;46163;52.306;5.634;2022-09-09T06:04:19;100530.31;;;21.94;57.97
60319;BME280;46163;52.306;5.634;2022-09-09T06:06:49;100531.13;;;21.94;57.74
60319;BME280;46163;52.306;5.634;2022-09-09T06:09:14;100533.03;;;21.94;57.64
60319;BME280;46163;52.306;5.634;2022-09-09T06:11:42;100529.50;;;21.93;57.67
60319;BME280;46163;52.306;5.634;2022-09-09T06:14:08;100530.31;;;21.94;57.93
60319;BME280;46163;52.306;5.634;2022-09-09T06:16:35;100529.22;;;21.95;57.67
60319;BME280;46163;52.306;5.634;2022-09-09T06:19:05;100523.28;;;21.93;57.63
60319;BME280;46163;52.306;5.634;2022-09-09T06:21:33;100528.97;;;21.91;57.51
60319;BME280;46163;52.306;5.634;2022-09-09T06:24:03;100525.19;;;21.92;57.46
60319;BME280;46163;52.306;5.634;2022-09-09T06:26:31;100530.31;;;21.94;57.56
60319;BME280;46163;52.306;5.634;2022-09-09T06:28:58;100525.47;;;21.91;57.73
60319;BME280;46163;52.306;5.634;2022-09-09T06:31:27;100525.69;;;21.94;57.81
60319;BME280;46163;52.306;5.634;2022-09-09T06:33:56;100526.50;;;21.95;57.85
60319;BME280;46163;52.306;5.634;2022-09-09T06:36:24;100521.09;;;21.95;57.72
60319;BME280;46163;52.306;5.634;2022-09-09T06:38:50;100525.69;;;21.94;57.77
60319;BME280;46163;52.306;5.634;2022-09-09T06:41:18;100519.69;;;21.97;57.94
60319;BME280;46163;52.306;5.634;2022-09-09T06:43:45;100524.06;;;21.98;57.55
60319;BME280;46163;52.306;5.634;2022-09-09T06:46:12;100524.84;;;21.99;57.64
60319;BME280;46163;52.306;5.634;2022-09-09T06:48:39;100526.19;;;22.01;57.23
60319;BME280;46163;52.306;5.634;2022-09-09T06:51:16;100523.19;;;22.03;57.23
60319;BME280;46163;52.306;5.634;2022-09-09T06:53:49;100523.69;;;22.05;57.32
60319;BME280;46163;52.306;5.634;2022-09-09T06:58:51;100509.91;;;22.07;57.07
60319;BME280;46163;52.306;5.634;2022-09-09T07:01:21;100515.84;;;22.09;57.42
60319;BME280;46163;52.306;5.634;2022-09-09T07:03:49;100516.97;;;22.08;57.01
60319;BME280;46163;52.306;5.634;2022-09-09T07:06:20;100513.16;;;22.09;57.09
60319;BME280;46163;52.306;5.634;2022-09-09T07:08:54;100510.16;;;22.10;57.43
60319;BME280;46163;52.306;5.634;2022-09-09T07:11:21;100515.28;;;22.12;57.08
60319;BME280;46163;52.306;5.634;2022-09-09T07:13:47;100520.41;;;22.13;57.55
60319;BME280;46163;52.306;5.634;2022-09-09T07:16:16;100517.69;;;22.13;57.11
60319;BME280;46163;52.306;5.634;2022-09-09T07:18:42;100508.03;;;22.07;57.30
60319;BME280;46163;52.306;5.634;2022-09-09T07:21:10;100516.34;;;22.16;56.86
60319;BME280;46163;52.306;5.634;2022-09-09T07:23:37;100514.44;;;22.16;57.36
60319;BME280;46163;52.306;5.634;2022-09-09T07:26:08;100517.41;;;22.15;57.28
60319;BME280;46163;52.306;5.634;2022-09-09T07:28:34;100509.84;;;22.12;57.45
60319;BME280;46163;52.306;5.634;2022-09-09T07:31:00;100514.69;;;22.15;57.38
60319;BME280;46163;52.306;5.634;2022-09-09T07:33:28;100508.75;;;22.13;57.57
60319;BME280;46163;52.306;5.634;2022-09-09T07:38:29;100510.34;;;22.19;57.14
60319;BME280;46163;52.306;5.634;2022-09-09T07:41:06;100506.53;;;22.20;57.34
60319;BME280;46163;52.306;5.634;2022-09-09T07:43:33;100502.97;;;22.24;57.39
60319;BME280;46163;52.306;5.634;2022-09-09T07:45:59;100510.81;;;22.26;57.66
60319;BME280;46163;52.306;5.634;2022-09-09T07:48:29;100508.63;;;22.28;57.77
60319;BME280;46163;52.306;5.634;2022-09-09T07:51:22;100508.91;;;22.26;57.74
60319;BME280;46163;52.306;5.634;2022-09-09T07:53:52;100521.31;;;22.33;57.42
60319;BME280;46163;52.306;5.634;2022-09-09T07:56:18;100519.94;;;22.35;57.73
60319;BME280;46163;52.306;5.634;2022-09-09T07:58:47;100514.53;;;22.35;57.32
60319;BME280;46163;52.306;5.634;2022-09-09T08:01:19;100525.88;;;22.37;57.46
60319;BME280;46163;52.306;5.634;2022-09-09T08:03:46;100529.41;;;22.38;57.66
60319;BME280;46163;52.306;5.634;2022-09-09T08:06:12;100532.91;;;22.38;57.43
60319;BME280;46163;52.306;5.634;2022-09-09T08:08:39;100532.34;;;22.41;57.46
60319;BME280;46163;52.306;5.634;2022-09-09T08:11:12;100532.88;;;22.43;57.50
60319;BME280;46163;52.306;5.634;2022-09-09T08:13:40;100527.16;;;22.45;57.49
60319;BME280;46163;52.306;5.634;2022-09-09T08:18:33;100528.47;;;22.47;57.59
60319;BME280;46163;52.306;5.634;2022-09-09T08:21:08;100537.94;;;22.50;57.59
60319;BME280;46163;52.306;5.634;2022-09-09T08:23:34;100535.78;;;22.52;57.26
60319;BME280;46163;52.306;5.634;2022-09-09T08:26:21;100545.22;;;22.54;57.56
60319;BME280;46163;52.306;5.634;2022-09-09T08:28:52;100538.47;;;22.52;57.39
60319;BME280;46163;52.306;5.634;2022-09-09T08:31:24;100510.94;;;22.40;57.13
60319;BME280;46163;52.306;5.634;2022-09-09T08:33:57;100549.25;;;22.57;57.12
60319;BME280;46163;52.306;5.634;2022-09-09T08:36:26;100543.03;;;22.56;57.36
60319;BME280;46163;52.306;5.634;2022-09-09T08:38:54;100541.13;;;22.57;57.32
60319;BME280;46163;52.306;5.634;2022-09-09T08:44:07;100550.06;;;22.57;57.19
60319;BME280;46163;52.306;5.634;2022-09-09T08:57:41;100561.16;;;22.61;57.00
60319;BME280;46163;52.306;5.634;2022-09-09T09:00:09;100561.47;;;22.60;57.15
60319;BME280;46163;52.306;5.634;2022-09-09T09:05:25;100565.19;;;22.64;56.97
60319;BME280;46163;52.306;5.634;2022-09-09T09:08:02;100559.78;;;22.64;57.00
60319;BME280;46163;52.306;5.634;2022-09-09T09:10:49;100551.41;;;22.60;56.93
60319;BME280;46163;52.306;5.634;2022-09-09T09:13:19;100565.19;;;22.64;56.97
60319;BME280;46163;52.306;5.634;2022-09-09T09:15:52;100573.34;;;22.64;56.67
60319;BME280;46163;52.306;5.634;2022-09-09T09:18:19;100569.00;;;22.63;56.93
60319;BME280;46163;52.306;5.634;2022-09-09T09:20:54;100564.69;;;22.62;57.01
60319;BME280;46163;52.306;5.634;2022-09-09T09:23:26;100574.72;;;22.61;56.72
60319;BME280;46163;52.306;5.634;2022-09-09T09:26:00;100579.34;;;22.61;56.73
60319;BME280;46163;52.306;5.634;2022-09-09T09:28:29;100571.50;;;22.59;57.10
60319;BME280;46163;52.306;5.634;2022-09-09T09:31:09;100572.31;;;22.60;56.79
60319;BME280;46163;52.306;5.634;2022-09-09T09:36:13;100578.00;;;22.58;57.35
60319;BME280;46163;52.306;5.634;2022-09-09T09:39:01;100579.38;;;22.55;57.21
60319;BME280;46163;52.306;5.634;2022-09-09T09:41:38;100576.66;;;22.55;57.07
60319;BME280;46163;52.306;5.634;2022-09-09T09:44:04;100578.56;;;22.55;57.19
60319;BME280;46163;52.306;5.634;2022-09-09T09:46:31;100584.00;;;22.55;57.21
60319;BME280;46163;52.306;5.634;2022-09-09T09:49:00;100578.34;;;22.51;57.28
60319;BME280;46163;52.306;5.634;2022-09-09T09:51:28;100578.88;;;22.53;57.42
60319;BME280;46163;52.306;5.634;2022-09-09T09:53:54;100581.59;;;22.53;57.10
60319;BME280;46163;52.306;5.634;2022-09-09T09:56:31;100571.31;;;22.50;57.46
60319;BME280;46163;52.306;5.634;2022-09-09T09:58:58;100574.53;;;22.52;57.33
60319;BME280;46163;52.306;5.634;2022-09-09T10:01:24;100575.63;;;22.51;57.09
60319;BME280;46163;52.306;5.634;2022-09-09T10:04:13;100576.75;;;22.50;57.28
60319;BME280;46163;52.306;5.634;2022-09-09T10:06:42;100552.47;;;22.35;57.09
60319;BME280;46163;52.306;5.634;2022-09-09T10:09:28;100553.84;;;22.33;57.28
60319;BME280;46163;52.306;5.634;2022-09-09T10:12:29;100578.91;;;22.48;56.86
60319;BME280;46163;52.306;5.634;2022-09-09T10:15:26;100577.28;;;22.47;56.67
60319;BME280;46163;52.306;5.634;2022-09-09T10:26:16;100571.56;;;22.49;56.74
60319;BME280;46163;52.306;5.634;2022-09-09T10:29:34;100564.53;;;22.48;56.78
60319;BME280;46163;52.306;5.634;2022-09-09T10:40:33;100575.91;;;22.50;57.01
60319;BME280;46163;52.306;5.634;2022-09-09T10:45:55;100559.63;;;22.50;56.63
60319;BME280;46163;52.306;5.634;2022-09-09T10:51:31;100566.97;;;22.49;56.61
60319;BME280;46163;52.306;5.634;2022-09-09T10:56:42;100564.59;;;22.43;56.99
60319;BME280;46163;52.306;5.634;2022-09-09T10:59:17;100577.00;;;22.49;56.52
60319;BME280;46163;52.306;5.634;2022-09-09T11:01:55;100571.88;;;22.47;56.49
60319;BME280;46163;52.306;5.634;2022-09-09T11:04:27;100573.47;;;22.48;56.66
60319;BME280;46163;52.306;5.634;2022-09-09T11:06:58;100576.19;;;22.48;56.52
60319;BME280;46163;52.306;5.634;2022-09-09T11:09:32;100569.16;;;22.47;56.41
60319;BME280;46163;52.306;5.634;2022-09-09T11:14:42;100588.72;;;22.44;56.87
60319;BME280;46163;52.306;5.634;2022-09-09T11:17:18;100581.69;;;22.43;56.92
60319;BME280;46163;52.306;5.634;2022-09-09T11:19:44;100578.44;;;22.41;56.53
60319;BME280;46163;52.306;5.634;2022-09-09T11:30:20;100583.78;;;22.51;56.43
60319;BME280;46163;52.306;5.634;2022-09-09T11:33:23;100580.47;;;22.54;56.63
60319;BME280;46163;52.306;5.634;2022-09-09T11:44:39;100561.06;;;22.71;56.53
60319;BME280;46163;52.306;5.634;2022-09-09T11:47:37;100559.38;;;22.75;56.34
60319;BME280;46163;52.306;5.634;2022-09-09T11:50:28;100555.28;;;22.78;56.37
60319;BME280;46163;52.306;5.634;2022-09-09T11:55:39;100546.34;;;22.77;56.58
60319;BME280;46163;52.306;5.634;2022-09-09T11:58:15;100542.25;;;22.80;56.34
60319;BME280;46163;52.306;5.634;2022-09-09T12:00:44;100556.59;;;22.80;56.64
60319;BME280;46163;52.306;5.634;2022-09-09T12:08:43;100553.59;;;22.82;56.32
60319;BME280;46163;52.306;5.634;2022-09-09T12:11:10;100554.94;;;22.84;56.67
60319;BME280;46163;52.306;5.634;2022-09-09T12:13:37;100549.25;;;22.86;56.75
60319;BME280;46163;52.306;5.634;2022-09-09T12:16:03;100544.63;;;22.87;56.55
60319;BME280;46163;52.306;5.634;2022-09-09T12:18:34;100551.97;;;22.86;56.54
60319;BME280;46163;52.306;5.634;2022-09-09T12:26:31;100545.75;;;22.86;56.98
60319;BME280;46163;52.306;5.634;2022-09-09T12:31:46;100537.84;;;22.84;57.08
60319;BME280;46163;52.306;5.634;2022-09-09T12:36:56;100535.75;;;22.76;57.06
60319;BME280;46163;52.306;5.634;2022-09-09T12:39:32;100538.13;;;22.82;56.99
60319;BME280;46163;52.306;5.634;2022-09-09T12:41:59;100530.00;;;22.82;56.92
60319;BME280;46163;52.306;5.634;2022-09-09T12:44:26;100535.41;;;22.82;56.66
60319;BME280;46163;52.306;5.634;2022-09-09T12:46:54;100538.44;;;22.81;57.01
60319;BME280;46163;52.306;5.634;2022-09-09T12:49:35;100534.09;;;22.80;56.99
60319;BME280;46163;52.306;5.634;2022-09-09T12:52:34;100539.00;;;22.78;56.89
60319;BME280;46163;52.306;5.634;2022-09-09T12:55:04;100537.63;;;22.80;56.69
60319;BME280;46163;52.306;5.634;2022-09-09T12:57:34;100541.44;;;22.79;56.98
60319;BME280;46163;52.306;5.634;2022-09-09T13:00:13;100539.53;;;22.80;56.76
60319;BME280;46163;52.306;5.634;2022-09-09T13:02:56;100531.38;;;22.80;56.99
60319;BME280;46163;52.306;5.634;2022-09-09T13:05:25;100528.66;;;22.80;57.46
60319;BME280;46163;52.306;5.634;2022-09-09T13:07:51;100526.19;;;22.83;57.46
60319;BME280;46163;52.306;5.634;2022-09-09T13:10:24;100532.41;;;22.84;57.43
60319;BME280;46163;52.306;5.634;2022-09-09T13:12:54;100519.69;;;22.84;57.33
60319;BME280;46163;52.306;5.634;2022-09-09T13:15:23;100525.88;;;22.90;57.48
60319;BME280;46163;52.306;5.634;2022-09-09T13:18:03;100526.09;;;22.94;57.06
60319;BME280;46163;52.306;5.634;2022-09-09T13:20:30;100521.19;;;22.96;57.18
60319;BME280;46163;52.306;5.634;2022-09-09T13:22:57;100523.09;;;22.95;57.48
60319;BME280;46163;52.306;5.634;2022-09-09T13:25:28;100525.00;;;22.95;57.65
60319;BME280;46163;52.306;5.634;2022-09-09T13:28:02;100525.81;;;22.95;57.46
60319;BME280;46163;52.306;5.634;2022-09-09T13:35:58;100519.84;;;22.93;57.60
60319;BME280;46163;52.306;5.634;2022-09-09T13:38:25;100528.53;;;22.95;57.69
60319;BME280;46163;52.306;5.634;2022-09-09T13:40:58;100526.31;;;22.97;57.56
60319;BME280;46163;52.306;5.634;2022-09-09T13:43:27;100521.19;;;22.96;57.69
60319;BME280;46163;52.306;5.634;2022-09-09T13:45:59;100530.94;;;22.97;57.68
60319;BME280;46163;52.306;5.634;2022-09-09T13:48:25;100518.47;;;22.96;57.58
60319;BME280;46163;52.306;5.634;2022-09-09T13:50:58;100516.56;;;22.96;57.74
60319;BME280;46163;52.306;5.634;2022-09-09T13:53:24;100516.28;;;22.98;57.52
60319;BME280;46163;52.306;5.634;2022-09-09T13:55:50;100503.13;;;22.86;57.80
60319;BME280;46163;52.306;5.634;2022-09-09T13:58:17;100529.03;;;22.97;57.61
60319;BME280;46163;52.306;5.634;2022-09-09T14:00:44;100530.94;;;22.97;57.81
60319;BME280;46163;52.306;5.634;2022-09-09T14:03:10;100524.41;;;22.98;57.84
60319;BME280;46163;52.306;5.634;2022-09-09T14:05:35;100522.50;;;22.98;57.78
60319;BME280;46163;52.306;5.634;2022-09-09T14:08:03;100517.88;;;22.99;57.40
60319;BME280;46163;52.306;5.634;2022-09-09T14:10:30;100519.28;;;22.96;57.75
60319;BME280;46163;52.306;5.634;2022-09-09T14:12:56;100519.59;;;22.95;57.47
60319;BME280;46163;52.306;5.634;2022-09-09T14:15:23;100527.72;;;22.95;57.54
60319;BME280;46163;52.306;5.634;2022-09-09T14:17:48;100528.53;;;22.95;57.82
60319;BME280;46163;52.306;5.634;2022-09-09T14:20:14;100532.34;;;22.94;57.96
60319;BME280;46163;52.306;5.634;2022-09-09T14:22:42;100525.81;;;22.95;57.65
60319;BME280;46163;52.306;5.634;2022-09-09T14:25:09;100526.09;;;22.94;57.49
60319;BME280;46163;52.306;5.634;2022-09-09T14:27:34;100526.09;;;22.94;57.89
60319;BME280;46163;52.306;5.634;2022-09-09T14:30:00;100518.22;;;22.92;57.98
60319;BME280;46163;52.306;5.634;2022-09-09T14:32:26;100516.31;;;22.93;57.73
60319;BME280;46163;52.306;5.634;2022-09-09T14:34:52;100513.91;;;22.91;57.59
60319;BME280;46163;52.306;5.634;2022-09-09T14:37:18;100515.81;;;22.91;57.50
60319;BME280;46163;52.306;5.634;2022-09-09T14:39:44;100515.00;;;22.90;57.80
60319;BME280;46163;52.306;5.634;2022-09-09T14:42:10;100518.00;;;22.89;57.88
60319;BME280;46163;52.306;5.634;2022-09-09T14:44:37;100514.50;;;22.88;57.91
60319;BME280;46163;52.306;5.634;2022-09-09T14:47:04;100516.41;;;22.88;57.83
60319;BME280;46163;52.306;5.634;2022-09-09T14:49:30;100515.59;;;22.87;57.91
60319;BME280;46163;52.306;5.634;2022-09-09T14:51:56;100514.25;;;22.84;57.65
60319;BME280;46163;52.306;5.634;2022-09-09T14:54:22;100515.31;;;22.83;58.16
60319;BME280;46163;52.306;5.634;2022-09-09T14:56:48;100501.53;;;22.80;57.97
60319;BME280;46163;52.306;5.634;2022-09-09T14:59:14;100509.91;;;22.83;57.70
60319;BME280;46163;52.306;5.634;2022-09-09T15:01:39;100516.13;;;22.84;58.08
60319;BME280;46163;52.306;5.634;2022-09-09T15:04:06;100507.19;;;22.83;58.00
60319;BME280;46163;52.306;5.634;2022-09-09T15:06:34;100504.25;;;22.80;57.99
60319;BME280;46163;52.306;5.634;2022-09-09T15:09:02;100506.16;;;22.79;58.16
60319;BME280;46163;52.306;5.634;2022-09-09T15:14:34;100506.47;;;22.78;58.12
60319;BME280;46163;52.306;5.634;2022-09-09T15:17:00;100512.69;;;22.78;58.07
60319;BME280;46163;52.306;5.634;2022-09-09T15:19:26;100513.78;;;22.77;58.12